sensor_id;sensor_type;location;lat;lon;timestamp;P1;durP1;ratioP1;P2;durP2;ratioP2
13197;SDS011;6664;52.514;13.440;2022-12-13T00:00:49;3.60;;;3.30;;
13197;SDS011;6664;52.514;13.440;2022-12-13T00:03:36;5.80;;;4.30;;
13197;SDS011;6664;52.514;13.440;2022-12-13T00:06:25;5.60;;;4.33;;
13197;SDS011;6664;52.514;13.440;2022-12-13T00:09:15;5.67;;;4.70;;
13197;SDS011;6664;52.514;13.440;2022-12-13T00:12:02;6.37;;;4.33;;
13197;SDS011;6664;52.514;13.440;2022-12-13T00:14:47;8.40;;;4.67;;
13197;SDS011;6664;52.514;13.440;2022-12-13T00:17:35;7.50;;;4.60;;
13197;SDS011;6664;52.514;13.440;2022-12-13T00:20:20;6.37;;;4.97;;
13197;SDS011;6664;52.514;13.440;2022-12-13T00:23:06;5.50;;;4.30;;
13197;SDS011;6664;52.514;13.440;2022-12-13T00:25:51;8.00;;;5.60;;
13197;SDS011;6664;52.514;13.440;2022-12-13T00:28:37;8.27;;;4.57;;
13197;SDS011;6664;52.514;13.440;2022-12-13T00:31:26;8.00;;;5.50;;
13197;SDS011;6664;52.514;13.440;2022-12-13T00:34:35;11.30;;;5.87;;
13197;SDS011;6664;52.514;13.440;2022-12-13T00:37:21;7.70;;;5.50;;
13197;SDS011;6664;52.514;13.440;2022-12-13T00:40:06;7.27;;;4.90;;
13197;SDS011;6664;52.514;13.440;2022-12-13T00:42:52;6.00;;;5.00;;
13197;SDS011;6664;52.514;13.440;2022-12-13T00:45:38;7.67;;;5.50;;
13197;SDS011;6664;52.514;13.440;2022-12-13T00:48:26;7.37;;;4.83;;
13197;SDS011;6664;52.514;13.440;2022-12-13T00:51:12;6.57;;;3.97;;
13197;SDS011;6664;52.514;13.440;2022-12-13T00:54:00;6.43;;;4.47;;
13197;SDS011;6664;52.514;13.440;2022-12-13T00:56:46;8.70;;;5.10;;
13197;SDS011;6664;52.514;13.440;2022-12-13T00:59:35;9.37;;;5.17;;
13197;SDS011;6664;52.514;13.440;2022-12-13T01:02:20;7.10;;;4.40;;
13197;SDS011;6664;52.514;13.440;2022-12-13T01:05:08;5.33;;;4.10;;
13197;SDS011;6664;52.514;13.440;2022-12-13T01:07:55;8.57;;;5.40;;
13197;SDS011;6664;52.514;13.440;2022-12-13T01:10:41;4.90;;;3.60;;
13197;SDS011;6664;52.514;13.440;2022-12-13T01:13:31;4.87;;;4.30;;
13197;SDS011;6664;52.514;13.440;2022-12-13T01:16:17;4.37;;;3.63;;
13197;SDS011;6664;52.514;13.440;2022-12-13T01:19:03;6.00;;;4.00;;
13197;SDS011;6664;52.514;13.440;2022-12-13T01:21:48;7.17;;;5.00;;
13197;SDS011;6664;52.514;13.440;2022-12-13T01:24:39;6.10;;;4.33;;
13197;SDS011;6664;52.514;13.440;2022-12-13T01:27:27;3.83;;;3.50;;
13197;SDS011;6664;52.514;13.440;2022-12-13T01:30:14;4.10;;;3.67;;
13197;SDS011;6664;52.514;13.440;2022-12-13T01:33:04;4.50;;;3.43;;
13197;SDS011;6664;52.514;13.440;2022-12-13T01:35:59;2.97;;;2.73;;
13197;SDS011;6664;52.514;13.440;2022-12-13T01:38:47;4.80;;;3.80;;
13197;SDS011;6664;52.514;13.440;2022-12-13T01:41:33;4.77;;;3.70;;
13197;SDS011;6664;52.514;13.440;2022-12-13T01:47:48;11.33;;;4.87;;
13197;SDS011;6664;52.514;13.440;2022-12-13T01:50:43;5.93;;;3.50;;
13197;SDS011;6664;52.514;13.440;2022-12-13T01:53:33;7.10;;;4.83;;
13197;SDS011;6664;52.514;13.440;2022-12-13T01:56:27;4.70;;;4.20;;
13197;SDS011;6664;52.514;13.440;2022-12-13T01:59:17;6.30;;;4.30;;
13197;SDS011;6664;52.514;13.440;2022-12-13T02:02:04;8.00;;;4.80;;
13197;SDS011;6664;52.514;13.440;2022-12-13T02:04:53;7.90;;;4.60;;
13197;SDS011;6664;52.514;13.440;2022-12-13T02:07:43;10.03;;;5.27;;
13197;SDS011;6664;52.514;13.440;2022-12-13T02:10:30;5.47;;;4.67;;
13197;SDS011;6664;52.514;13.440;2022-12-13T02:13:16;6.00;;;4.30;;
13197;SDS011;6664;52.514;13.440;2022-12-13T02:16:27;6.67;;;4.57;;
13197;SDS011;6664;52.514;13.440;2022-12-13T02:19:33;6.40;;;4.80;;
13197;SDS011;6664;52.514;13.440;2022-12-13T02:26:26;8.90;;;4.93;;
13197;SDS011;6664;52.514;13.440;2022-12-13T02:29:09;6.60;;;4.70;;
13197;SDS011;6664;52.514;13.440;2022-12-13T02:35:05;6.47;;;3.83;;
13197;SDS011;6664;52.514;13.440;2022-12-13T02:44:23;5.60;;;3.87;;
13197;SDS011;6664;52.514;13.440;2022-12-13T02:47:18;7.97;;;5.53;;
13197;SDS011;6664;52.514;13.440;2022-12-13T02:50:07;6.33;;;4.70;;
13197;SDS011;6664;52.514;13.440;2022-12-13T02:52:57;10.70;;;5.90;;
13197;SDS011;6664;52.514;13.440;2022-12-13T02:55:43;8.37;;;5.40;;
13197;SDS011;6664;52.514;13.440;2022-12-13T02:58:31;5.87;;;4.50;;
13197;SDS011;6664;52.514;13.440;2022-12-13T03:04:29;6.13;;;4.93;;
13197;SDS011;6664;52.514;13.440;2022-12-13T03:11:09;5.77;;;4.70;;
13197;SDS011;6664;52.514;13.440;2022-12-13T03:14:02;8.50;;;5.80;;
13197;SDS011;6664;52.514;13.440;2022-12-13T03:16:51;6.37;;;4.73;;
13197;SDS011;6664;52.514;13.440;2022-12-13T03:19:39;9.77;;;6.00;;
13197;SDS011;6664;52.514;13.440;2022-12-13T03:22:25;8.73;;;5.90;;
13197;SDS011;6664;52.514;13.440;2022-12-13T03:25:11;7.13;;;5.50;;
13197;SDS011;6664;52.514;13.440;2022-12-13T03:28:15;5.77;;;4.70;;
13197;SDS011;6664;52.514;13.440;2022-12-13T03:31:00;7.63;;;5.50;;
13197;SDS011;6664;52.514;13.440;2022-12-13T03:33:49;7.40;;;4.90;;
13197;SDS011;6664;52.514;13.440;2022-12-13T03:36:37;7.43;;;5.33;;
13197;SDS011;6664;52.514;13.440;2022-12-13T03:39:22;9.53;;;5.73;;
13197;SDS011;6664;52.514;13.440;2022-12-13T03:42:08;7.97;;;4.90;;
13197;SDS011;6664;52.514;13.440;2022-12-13T03:44:56;6.70;;;4.90;;
13197;SDS011;6664;52.514;13.440;2022-12-13T03:47:43;7.70;;;4.87;;
13197;SDS011;6664;52.514;13.440;2022-12-13T03:50:31;10.03;;;5.97;;
13197;SDS011;6664;52.514;13.440;2022-12-13T03:53:16;6.30;;;5.07;;
13197;SDS011;6664;52.514;13.440;2022-12-13T03:56:16;8.57;;;5.70;;
13197;SDS011;6664;52.514;13.440;2022-12-13T03:59:01;8.67;;;4.90;;
13197;SDS011;6664;52.514;13.440;2022-12-13T04:01:47;7.30;;;5.03;;
13197;SDS011;6664;52.514;13.440;2022-12-13T04:04:33;7.33;;;5.20;;
13197;SDS011;6664;52.514;13.440;2022-12-13T04:07:20;6.97;;;5.23;;
13197;SDS011;6664;52.514;13.440;2022-12-13T04:10:06;8.50;;;5.53;;
13197;SDS011;6664;52.514;13.440;2022-12-13T04:13:10;7.17;;;4.90;;
13197;SDS011;6664;52.514;13.440;2022-12-13T04:16:14;10.20;;;4.93;;
13197;SDS011;6664;52.514;13.440;2022-12-13T04:19:07;11.47;;;5.67;;
13197;SDS011;6664;52.514;13.440;2022-12-13T04:21:53;7.20;;;4.70;;
13197;SDS011;6664;52.514;13.440;2022-12-13T04:24:41;7.33;;;4.97;;
13197;SDS011;6664;52.514;13.440;2022-12-13T04:27:28;12.27;;;4.90;;
13197;SDS011;6664;52.514;13.440;2022-12-13T04:30:14;7.57;;;5.10;;
13197;SDS011;6664;52.514;13.440;2022-12-13T04:33:00;8.03;;;5.17;;
13197;SDS011;6664;52.514;13.440;2022-12-13T04:35:47;8.13;;;4.70;;
13197;SDS011;6664;52.514;13.440;2022-12-13T04:38:34;8.77;;;5.23;;
13197;SDS011;6664;52.514;13.440;2022-12-13T04:41:19;6.97;;;4.80;;
13197;SDS011;6664;52.514;13.440;2022-12-13T04:44:06;7.80;;;5.43;;
13197;SDS011;6664;52.514;13.440;2022-12-13T04:47:12;8.83;;;4.80;;
13197;SDS011;6664;52.514;13.440;2022-12-13T04:50:00;7.97;;;5.50;;
13197;SDS011;6664;52.514;13.440;2022-12-13T04:52:45;8.23;;;4.73;;
13197;SDS011;6664;52.514;13.440;2022-12-13T04:55:31;8.33;;;5.10;;
13197;SDS011;6664;52.514;13.440;2022-12-13T04:58:16;7.37;;;4.93;;
13197;SDS011;6664;52.514;13.440;2022-12-13T05:01:10;11.10;;;5.50;;
13197;SDS011;6664;52.514;13.440;2022-12-13T05:04:00;7.60;;;5.17;;
13197;SDS011;6664;52.514;13.440;2022-12-13T05:06:46;9.20;;;5.43;;
13197;SDS011;6664;52.514;13.440;2022-12-13T05:09:32;8.03;;;5.43;;
13197;SDS011;6664;52.514;13.440;2022-12-13T05:12:19;5.30;;;4.13;;
13197;SDS011;6664;52.514;13.440;2022-12-13T05:15:09;6.40;;;4.27;;
13197;SDS011;6664;52.514;13.440;2022-12-13T05:17:55;6.40;;;3.90;;
13197;SDS011;6664;52.514;13.440;2022-12-13T05:20:54;10.07;;;5.50;;
13197;SDS011;6664;52.514;13.440;2022-12-13T05:23:39;5.80;;;4.87;;
13197;SDS011;6664;52.514;13.440;2022-12-13T05:26:27;6.77;;;4.70;;
13197;SDS011;6664;52.514;13.440;2022-12-13T05:29:14;9.03;;;5.73;;
13197;SDS011;6664;52.514;13.440;2022-12-13T05:32:01;6.73;;;4.90;;
13197;SDS011;6664;52.514;13.440;2022-12-13T05:34:47;7.20;;;4.57;;
13197;SDS011;6664;52.514;13.440;2022-12-13T05:37:33;7.70;;;4.73;;
13197;SDS011;6664;52.514;13.440;2022-12-13T05:40:19;6.40;;;4.80;;
13197;SDS011;6664;52.514;13.440;2022-12-13T05:43:04;6.57;;;4.73;;
13197;SDS011;6664;52.514;13.440;2022-12-13T05:46:06;8.03;;;5.03;;
13197;SDS011;6664;52.514;13.440;2022-12-13T05:48:52;9.00;;;5.30;;
13197;SDS011;6664;52.514;13.440;2022-12-13T05:51:37;7.70;;;5.23;;
13197;SDS011;6664;52.514;13.440;2022-12-13T05:54:22;6.43;;;4.63;;
13197;SDS011;6664;52.514;13.440;2022-12-13T05:57:08;7.90;;;5.27;;
13197;SDS011;6664;52.514;13.440;2022-12-13T05:59:53;5.20;;;4.17;;
13197;SDS011;6664;52.514;13.440;2022-12-13T06:02:39;8.23;;;4.83;;
13197;SDS011;6664;52.514;13.440;2022-12-13T06:05:26;6.90;;;4.77;;
13197;SDS011;6664;52.514;13.440;2022-12-13T06:08:11;6.73;;;5.20;;
13197;SDS011;6664;52.514;13.440;2022-12-13T06:11:09;6.10;;;4.43;;
13197;SDS011;6664;52.514;13.440;2022-12-13T06:14:05;6.23;;;4.23;;
13197;SDS011;6664;52.514;13.440;2022-12-13T06:17:05;9.37;;;5.67;;
13197;SDS011;6664;52.514;13.440;2022-12-13T06:19:51;9.63;;;5.00;;
13197;SDS011;6664;52.514;13.440;2022-12-13T06:22:38;7.87;;;5.30;;
13197;SDS011;6664;52.514;13.440;2022-12-13T06:25:26;10.17;;;5.73;;
13197;SDS011;6664;52.514;13.440;2022-12-13T06:28:15;5.83;;;3.80;;
13197;SDS011;6664;52.514;13.440;2022-12-13T06:31:01;9.23;;;5.33;;
13197;SDS011;6664;52.514;13.440;2022-12-13T06:33:50;8.77;;;4.90;;
13197;SDS011;6664;52.514;13.440;2022-12-13T06:36:38;7.93;;;4.97;;
13197;SDS011;6664;52.514;13.440;2022-12-13T06:39:23;8.30;;;5.10;;
13197;SDS011;6664;52.514;13.440;2022-12-13T06:42:17;7.40;;;4.73;;
13197;SDS011;6664;52.514;13.440;2022-12-13T06:45:06;9.73;;;5.83;;
13197;SDS011;6664;52.514;13.440;2022-12-13T06:47:53;8.63;;;5.77;;
13197;SDS011;6664;52.514;13.440;2022-12-13T06:50:42;8.80;;;5.13;;
13197;SDS011;6664;52.514;13.440;2022-12-13T06:53:29;7.13;;;5.13;;
13197;SDS011;6664;52.514;13.440;2022-12-13T06:56:17;7.73;;;5.10;;
13197;SDS011;6664;52.514;13.440;2022-12-13T06:59:03;9.33;;;4.27;;
13197;SDS011;6664;52.514;13.440;2022-12-13T07:01:48;7.30;;;5.60;;
13197;SDS011;6664;52.514;13.440;2022-12-13T07:04:34;7.67;;;5.00;;
13197;SDS011;6664;52.514;13.440;2022-12-13T07:07:20;9.90;;;5.50;;
13197;SDS011;6664;52.514;13.440;2022-12-13T07:10:06;7.80;;;5.10;;
13197;SDS011;6664;52.514;13.440;2022-12-13T07:13:06;9.60;;;5.80;;
13197;SDS011;6664;52.514;13.440;2022-12-13T07:15:54;9.30;;;6.33;;
13197;SDS011;6664;52.514;13.440;2022-12-13T07:18:45;9.10;;;5.80;;
13197;SDS011;6664;52.514;13.440;2022-12-13T07:21:32;9.23;;;5.53;;
13197;SDS011;6664;52.514;13.440;2022-12-13T07:24:20;13.90;;;6.73;;
13197;SDS011;6664;52.514;13.440;2022-12-13T07:27:05;9.23;;;6.27;;
13197;SDS011;6664;52.514;13.440;2022-12-13T07:29:54;13.47;;;7.00;;
13197;SDS011;6664;52.514;13.440;2022-12-13T07:32:39;8.80;;;5.50;;
13197;SDS011;6664;52.514;13.440;2022-12-13T07:35:27;11.53;;;6.13;;
13197;SDS011;6664;52.514;13.440;2022-12-13T07:38:13;14.00;;;7.13;;
13197;SDS011;6664;52.514;13.440;2022-12-13T07:41:01;9.47;;;6.73;;
13197;SDS011;6664;52.514;13.440;2022-12-13T07:43:47;11.37;;;6.67;;
13197;SDS011;6664;52.514;13.440;2022-12-13T07:46:39;12.63;;;7.00;;
13197;SDS011;6664;52.514;13.440;2022-12-13T07:49:24;10.70;;;6.50;;
13197;SDS011;6664;52.514;13.440;2022-12-13T07:52:10;19.00;;;7.67;;
13197;SDS011;6664;52.514;13.440;2022-12-13T07:54:56;14.40;;;6.80;;
13197;SDS011;6664;52.514;13.440;2022-12-13T07:57:45;9.77;;;6.40;;
13197;SDS011;6664;52.514;13.440;2022-12-13T08:00:31;9.30;;;6.33;;
13197;SDS011;6664;52.514;13.440;2022-12-13T08:03:17;12.10;;;6.90;;
13197;SDS011;6664;52.514;13.440;2022-12-13T08:06:10;12.70;;;6.87;;
13197;SDS011;6664;52.514;13.440;2022-12-13T08:08:56;10.73;;;6.80;;
13197;SDS011;6664;52.514;13.440;2022-12-13T08:11:44;9.90;;;6.27;;
13197;SDS011;6664;52.514;13.440;2022-12-13T08:14:29;8.57;;;5.53;;
13197;SDS011;6664;52.514;13.440;2022-12-13T08:17:15;12.43;;;7.60;;
13197;SDS011;6664;52.514;13.440;2022-12-13T08:20:01;11.03;;;6.87;;
13197;SDS011;6664;52.514;13.440;2022-12-13T08:22:56;12.53;;;7.10;;
13197;SDS011;6664;52.514;13.440;2022-12-13T08:25:50;9.63;;;6.33;;
13197;SDS011;6664;52.514;13.440;2022-12-13T08:28:37;9.80;;;6.47;;
13197;SDS011;6664;52.514;13.440;2022-12-13T08:31:26;13.53;;;8.33;;
13197;SDS011;6664;52.514;13.440;2022-12-13T08:34:17;11.73;;;7.80;;
13197;SDS011;6664;52.514;13.440;2022-12-13T08:37:05;11.17;;;7.40;;
13197;SDS011;6664;52.514;13.440;2022-12-13T08:39:51;10.30;;;6.30;;
13197;SDS011;6664;52.514;13.440;2022-12-13T08:42:36;12.53;;;7.27;;
13197;SDS011;6664;52.514;13.440;2022-12-13T08:45:22;11.50;;;7.37;;
13197;SDS011;6664;52.514;13.440;2022-12-13T08:48:09;12.70;;;7.30;;
13197;SDS011;6664;52.514;13.440;2022-12-13T08:50:58;11.00;;;7.67;;
13197;SDS011;6664;52.514;13.440;2022-12-13T08:54:19;13.33;;;7.13;;
13197;SDS011;6664;52.514;13.440;2022-12-13T08:57:18;9.80;;;7.80;;
13197;SDS011;6664;52.514;13.440;2022-12-13T09:00:04;10.47;;;7.30;;
13197;SDS011;6664;52.514;13.440;2022-12-13T09:02:50;10.40;;;7.30;;
13197;SDS011;6664;52.514;13.440;2022-12-13T09:05:36;9.43;;;7.07;;
13197;SDS011;6664;52.514;13.440;2022-12-13T09:08:24;11.90;;;6.90;;
13197;SDS011;6664;52.514;13.440;2022-12-13T09:11:19;9.07;;;6.77;;
13197;SDS011;6664;52.514;13.440;2022-12-13T09:14:18;13.30;;;6.33;;
13197;SDS011;6664;52.514;13.440;2022-12-13T09:17:09;10.23;;;6.70;;
13197;SDS011;6664;52.514;13.440;2022-12-13T09:20:08;11.47;;;7.20;;
13197;SDS011;6664;52.514;13.440;2022-12-13T09:23:15;8.90;;;6.03;;
13197;SDS011;6664;52.514;13.440;2022-12-13T09:26:09;11.47;;;6.87;;
13197;SDS011;6664;52.514;13.440;2022-12-13T09:28:59;12.23;;;7.47;;
13197;SDS011;6664;52.514;13.440;2022-12-13T09:31:55;14.03;;;7.30;;
13197;SDS011;6664;52.514;13.440;2022-12-13T09:34:41;9.57;;;6.00;;
13197;SDS011;6664;52.514;13.440;2022-12-13T09:37:30;12.80;;;7.40;;
13197;SDS011;6664;52.514;13.440;2022-12-13T09:40:19;11.10;;;6.50;;
13197;SDS011;6664;52.514;13.440;2022-12-13T09:43:18;10.60;;;7.10;;
13197;SDS011;6664;52.514;13.440;2022-12-13T09:46:26;14.50;;;6.90;;
13197;SDS011;6664;52.514;13.440;2022-12-13T09:49:30;10.67;;;6.67;;
13197;SDS011;6664;52.514;13.440;2022-12-13T09:52:20;11.53;;;7.90;;
13197;SDS011;6664;52.514;13.440;2022-12-13T09:58:05;9.20;;;6.87;;
13197;SDS011;6664;52.514;13.440;2022-12-13T10:01:10;9.60;;;7.20;;
13197;SDS011;6664;52.514;13.440;2022-12-13T10:04:10;10.20;;;6.37;;
13197;SDS011;6664;52.514;13.440;2022-12-13T10:07:00;12.13;;;7.33;;
13197;SDS011;6664;52.514;13.440;2022-12-13T10:09:53;9.77;;;6.77;;
13197;SDS011;6664;52.514;13.440;2022-12-13T10:12:52;13.63;;;6.40;;
13197;SDS011;6664;52.514;13.440;2022-12-13T10:15:49;13.50;;;6.93;;
13197;SDS011;6664;52.514;13.440;2022-12-13T10:18:40;12.50;;;6.37;;
13197;SDS011;6664;52.514;13.440;2022-12-13T10:21:28;10.00;;;5.70;;
13197;SDS011;6664;52.514;13.440;2022-12-13T10:24:24;9.87;;;6.47;;
13197;SDS011;6664;52.514;13.440;2022-12-13T10:27:26;13.50;;;6.13;;
13197;SDS011;6664;52.514;13.440;2022-12-13T10:30:18;12.07;;;6.80;;
13197;SDS011;6664;52.514;13.440;2022-12-13T10:33:48;11.93;;;7.17;;
13197;SDS011;6664;52.514;13.440;2022-12-13T10:36:31;9.53;;;6.07;;
13197;SDS011;6664;52.514;13.440;2022-12-13T10:39:35;11.70;;;7.00;;
13197;SDS011;6664;52.514;13.440;2022-12-13T10:42:25;9.20;;;6.07;;
13197;SDS011;6664;52.514;13.440;2022-12-13T10:45:20;9.50;;;6.33;;
13197;SDS011;6664;52.514;13.440;2022-12-13T10:48:16;7.40;;;5.40;;
13197;SDS011;6664;52.514;13.440;2022-12-13T10:51:14;11.37;;;6.70;;
13197;SDS011;6664;52.514;13.440;2022-12-13T10:54:02;10.93;;;6.30;;
13197;SDS011;6664;52.514;13.440;2022-12-13T10:56:48;11.97;;;6.40;;
13197;SDS011;6664;52.514;13.440;2022-12-13T10:59:38;9.30;;;6.20;;
13197;SDS011;6664;52.514;13.440;2022-12-13T11:02:26;10.43;;;6.63;;
13197;SDS011;6664;52.514;13.440;2022-12-13T11:05:27;9.90;;;6.30;;
13197;SDS011;6664;52.514;13.440;2022-12-13T11:08:21;9.23;;;5.17;;
13197;SDS011;6664;52.514;13.440;2022-12-13T11:11:11;8.67;;;5.33;;
13197;SDS011;6664;52.514;13.440;2022-12-13T11:14:02;8.47;;;6.33;;
13197;SDS011;6664;52.514;13.440;2022-12-13T11:16:51;10.87;;;6.50;;
13197;SDS011;6664;52.514;13.440;2022-12-13T11:19:45;8.27;;;6.23;;
13197;SDS011;6664;52.514;13.440;2022-12-13T11:22:36;5.93;;;5.20;;
13197;SDS011;6664;52.514;13.440;2022-12-13T11:25:24;8.50;;;5.37;;
13197;SDS011;6664;52.514;13.440;2022-12-13T11:28:24;9.03;;;4.97;;
13197;SDS011;6664;52.514;13.440;2022-12-13T11:40:40;9.57;;;5.10;;
13197;SDS011;6664;52.514;13.440;2022-12-13T11:43:34;7.97;;;5.70;;
13197;SDS011;6664;52.514;13.440;2022-12-13T11:46:39;8.10;;;4.80;;
13197;SDS011;6664;52.514;13.440;2022-12-13T11:49:31;9.60;;;5.90;;
13197;SDS011;6664;52.514;13.440;2022-12-13T11:52:35;10.20;;;6.77;;
13197;SDS011;6664;52.514;13.440;2022-12-13T11:58:20;9.40;;;5.87;;
13197;SDS011;6664;52.514;13.440;2022-12-13T12:01:39;7.73;;;4.47;;
13197;SDS011;6664;52.514;13.440;2022-12-13T12:07:37;8.90;;;5.10;;
13197;SDS011;6664;52.514;13.440;2022-12-13T12:10:48;6.10;;;4.50;;
13197;SDS011;6664;52.514;13.440;2022-12-13T12:13:49;11.73;;;5.80;;
13197;SDS011;6664;52.514;13.440;2022-12-13T12:19:37;8.40;;;5.57;;
13197;SDS011;6664;52.514;13.440;2022-12-13T12:22:35;5.90;;;4.90;;
13197;SDS011;6664;52.514;13.440;2022-12-13T12:35:35;6.83;;;4.83;;
13197;SDS011;6664;52.514;13.440;2022-12-13T12:51:50;7.73;;;5.03;;
13197;SDS011;6664;52.514;13.440;2022-12-13T13:00:29;6.93;;;4.90;;
13197;SDS011;6664;52.514;13.440;2022-12-13T13:03:35;7.20;;;4.80;;
13197;SDS011;6664;52.514;13.440;2022-12-13T13:06:29;9.23;;;6.07;;
13197;SDS011;6664;52.514;13.440;2022-12-13T13:09:24;7.97;;;5.40;;
13197;SDS011;6664;52.514;13.440;2022-12-13T13:12:10;10.57;;;5.10;;
13197;SDS011;6664;52.514;13.440;2022-12-13T13:16:01;7.20;;;5.60;;
13197;SDS011;6664;52.514;13.440;2022-12-13T13:21:34;6.60;;;5.43;;
13197;SDS011;6664;52.514;13.440;2022-12-13T13:24:27;6.80;;;4.97;;
13197;SDS011;6664;52.514;13.440;2022-12-13T13:30:04;9.27;;;5.10;;
13197;SDS011;6664;52.514;13.440;2022-12-13T13:32:52;9.03;;;4.80;;
13197;SDS011;6664;52.514;13.440;2022-12-13T13:35:46;8.93;;;3.80;;
13197;SDS011;6664;52.514;13.440;2022-12-13T13:38:50;9.70;;;4.90;;
13197;SDS011;6664;52.514;13.440;2022-12-13T13:41:37;5.80;;;4.70;;
13197;SDS011;6664;52.514;13.440;2022-12-13T13:47:37;8.60;;;5.87;;
13197;SDS011;6664;52.514;13.440;2022-12-13T14:23:17;9.13;;;4.60;;
13197;SDS011;6664;52.514;13.440;2022-12-13T14:25:50;9.13;;;4.57;;
13197;SDS011;6664;52.514;13.440;2022-12-13T14:29:00;5.40;;;4.27;;
13197;SDS011;6664;52.514;13.440;2022-12-13T14:31:48;8.67;;;4.87;;
13197;SDS011;6664;52.514;13.440;2022-12-13T14:34:36;7.63;;;4.87;;
13197;SDS011;6664;52.514;13.440;2022-12-13T14:37:25;4.10;;;3.70;;
13197;SDS011;6664;52.514;13.440;2022-12-13T14:43:36;6.40;;;4.80;;
13197;SDS011;6664;52.514;13.440;2022-12-13T14:46:21;6.17;;;5.03;;
13197;SDS011;6664;52.514;13.440;2022-12-13T14:49:09;7.00;;;5.07;;
13197;SDS011;6664;52.514;13.440;2022-12-13T14:52:00;7.40;;;5.10;;
13197;SDS011;6664;52.514;13.440;2022-12-13T14:54:51;8.57;;;5.70;;
13197;SDS011;6664;52.514;13.440;2022-12-13T14:57:42;7.00;;;4.90;;
13197;SDS011;6664;52.514;13.440;2022-12-13T15:00:38;11.27;;;5.80;;
13197;SDS011;6664;52.514;13.440;2022-12-13T15:03:25;11.83;;;5.77;;
13197;SDS011;6664;52.514;13.440;2022-12-13T15:06:12;7.07;;;5.20;;
13197;SDS011;6664;52.514;13.440;2022-12-13T15:08:58;10.07;;;5.43;;
13197;SDS011;6664;52.514;13.440;2022-12-13T15:11:44;15.67;;;5.97;;
13197;SDS011;6664;52.514;13.440;2022-12-13T15:14:36;8.00;;;5.40;;
13197;SDS011;6664;52.514;13.440;2022-12-13T15:23:14;9.63;;;5.30;;
13197;SDS011;6664;52.514;13.440;2022-12-13T15:26:22;21.27;;;10.63;;
13197;SDS011;6664;52.514;13.440;2022-12-13T15:29:13;7.67;;;4.80;;
13197;SDS011;6664;52.514;13.440;2022-12-13T15:32:04;7.63;;;5.53;;
13197;SDS011;6664;52.514;13.440;2022-12-13T15:34:56;8.50;;;5.70;;
13197;SDS011;6664;52.514;13.440;2022-12-13T15:37:59;7.90;;;5.97;;
13197;SDS011;6664;52.514;13.440;2022-12-13T15:40:47;9.30;;;5.80;;
13197;SDS011;6664;52.514;13.440;2022-12-13T15:43:36;10.83;;;6.17;;
13197;SDS011;6664;52.514;13.440;2022-12-13T15:46:29;8.20;;;5.70;;
13197;SDS011;6664;52.514;13.440;2022-12-13T15:52:23;12.50;;;6.23;;
13197;SDS011;6664;52.514;13.440;2022-12-13T15:58:16;10.37;;;6.60;;
13197;SDS011;6664;52.514;13.440;2022-12-13T16:01:23;15.13;;;7.20;;
13197;SDS011;6664;52.514;13.440;2022-12-13T16:04:19;9.00;;;5.63;;
13197;SDS011;6664;52.514;13.440;2022-12-13T16:07:19;12.57;;;6.17;;
13197;SDS011;6664;52.514;13.440;2022-12-13T16:10:06;10.07;;;6.10;;
13197;SDS011;6664;52.514;13.440;2022-12-13T16:12:56;14.23;;;6.70;;
13197;SDS011;6664;52.514;13.440;2022-12-13T16:15:56;11.83;;;7.10;;
13197;SDS011;6664;52.514;13.440;2022-12-13T16:18:54;11.53;;;7.10;;
13197;SDS011;6664;52.514;13.440;2022-12-13T16:21:41;14.57;;;6.87;;
13197;SDS011;6664;52.514;13.440;2022-12-13T16:24:27;14.17;;;6.80;;
13197;SDS011;6664;52.514;13.440;2022-12-13T16:27:14;10.57;;;6.20;;
13197;SDS011;6664;52.514;13.440;2022-12-13T16:30:01;12.20;;;7.47;;
13197;SDS011;6664;52.514;13.440;2022-12-13T16:32:53;9.60;;;6.20;;
13197;SDS011;6664;52.514;13.440;2022-12-13T16:35:59;11.53;;;6.47;;
13197;SDS011;6664;52.514;13.440;2022-12-13T16:38:44;12.20;;;6.67;;
13197;SDS011;6664;52.514;13.440;2022-12-13T16:41:30;12.07;;;6.30;;
13197;SDS011;6664;52.514;13.440;2022-12-13T16:47:16;8.73;;;5.83;;
13197;SDS011;6664;52.514;13.440;2022-12-13T16:50:18;13.70;;;6.70;;
13197;SDS011;6664;52.514;13.440;2022-12-13T16:53:04;10.43;;;6.40;;
13197;SDS011;6664;52.514;13.440;2022-12-13T16:55:50;10.33;;;6.60;;
13197;SDS011;6664;52.514;13.440;2022-12-13T16:58:43;11.80;;;7.00;;
13197;SDS011;6664;52.514;13.440;2022-12-13T17:01:34;10.60;;;7.30;;
13197;SDS011;6664;52.514;13.440;2022-12-13T17:04:21;11.73;;;6.43;;
13197;SDS011;6664;52.514;13.440;2022-12-13T17:07:11;10.23;;;6.10;;
13197;SDS011;6664;52.514;13.440;2022-12-13T17:09:56;8.37;;;5.97;;
13197;SDS011;6664;52.514;13.440;2022-12-13T17:12:43;14.30;;;8.10;;
13197;SDS011;6664;52.514;13.440;2022-12-13T17:15:31;11.60;;;7.37;;
13197;SDS011;6664;52.514;13.440;2022-12-13T17:18:16;12.60;;;6.97;;
13197;SDS011;6664;52.514;13.440;2022-12-13T17:21:06;10.70;;;7.07;;
13197;SDS011;6664;52.514;13.440;2022-12-13T17:23:53;12.10;;;6.50;;
13197;SDS011;6664;52.514;13.440;2022-12-13T17:26:39;10.87;;;6.93;;
13197;SDS011;6664;52.514;13.440;2022-12-13T17:29:41;12.23;;;6.40;;
13197;SDS011;6664;52.514;13.440;2022-12-13T17:32:29;12.10;;;8.10;;
13197;SDS011;6664;52.514;13.440;2022-12-13T17:35:17;13.70;;;6.97;;
13197;SDS011;6664;52.514;13.440;2022-12-13T17:38:05;12.67;;;7.77;;
13197;SDS011;6664;52.514;13.440;2022-12-13T17:40:53;16.13;;;8.10;;
13197;SDS011;6664;52.514;13.440;2022-12-13T17:43:39;11.93;;;8.30;;
13197;SDS011;6664;52.514;13.440;2022-12-13T17:46:26;9.30;;;6.40;;
13197;SDS011;6664;52.514;13.440;2022-12-13T17:49:12;9.27;;;6.47;;
13197;SDS011;6664;52.514;13.440;2022-12-13T17:51:57;17.77;;;8.10;;
13197;SDS011;6664;52.514;13.440;2022-12-13T17:54:45;10.23;;;6.30;;
13197;SDS011;6664;52.514;13.440;2022-12-13T17:57:33;10.70;;;6.50;;
13197;SDS011;6664;52.514;13.440;2022-12-13T18:00:21;13.17;;;7.37;;
13197;SDS011;6664;52.514;13.440;2022-12-13T18:03:06;10.93;;;7.53;;
13197;SDS011;6664;52.514;13.440;2022-12-13T18:05:56;10.80;;;6.47;;
13197;SDS011;6664;52.514;13.440;2022-12-13T18:08:46;8.60;;;7.33;;
13197;SDS011;6664;52.514;13.440;2022-12-13T18:11:32;13.83;;;9.73;;
13197;SDS011;6664;52.514;13.440;2022-12-13T18:14:19;9.87;;;7.83;;
13197;SDS011;6664;52.514;13.440;2022-12-13T18:17:05;11.07;;;7.10;;
13197;SDS011;6664;52.514;13.440;2022-12-13T18:19:53;13.07;;;8.13;;
13197;SDS011;6664;52.514;13.440;2022-12-13T18:22:38;11.13;;;6.53;;
13197;SDS011;6664;52.514;13.440;2022-12-13T18:25:34;12.07;;;8.17;;
13197;SDS011;6664;52.514;13.440;2022-12-13T18:28:20;10.53;;;7.40;;
13197;SDS011;6664;52.514;13.440;2022-12-13T18:31:10;14.00;;;7.10;;
13197;SDS011;6664;52.514;13.440;2022-12-13T18:33:58;9.97;;;6.40;;
13197;SDS011;6664;52.514;13.440;2022-12-13T18:36:44;13.93;;;8.57;;
13197;SDS011;6664;52.514;13.440;2022-12-13T18:39:32;9.53;;;6.50;;
13197;SDS011;6664;52.514;13.440;2022-12-13T18:42:21;15.70;;;8.50;;
13197;SDS011;6664;52.514;13.440;2022-12-13T18:45:06;13.90;;;8.50;;
13197;SDS011;6664;52.514;13.440;2022-12-13T18:47:58;13.93;;;7.97;;
13197;SDS011;6664;52.514;13.440;2022-12-13T18:50:44;17.10;;;8.10;;
13197;SDS011;6664;52.514;13.440;2022-12-13T18:53:33;14.17;;;8.10;;
13197;SDS011;6664;52.514;13.440;2022-12-13T18:56:19;16.53;;;8.60;;
13197;SDS011;6664;52.514;13.440;2022-12-13T18:59:05;19.67;;;7.47;;
13197;SDS011;6664;52.514;13.440;2022-12-13T19:01:50;13.70;;;8.73;;
13197;SDS011;6664;52.514;13.440;2022-12-13T19:04:36;14.70;;;8.40;;
13197;SDS011;6664;52.514;13.440;2022-12-13T19:07:22;11.10;;;7.53;;
13197;SDS011;6664;52.514;13.440;2022-12-13T19:10:13;14.53;;;8.73;;
13197;SDS011;6664;52.514;13.440;2022-12-13T19:12:58;11.70;;;7.90;;
13197;SDS011;6664;52.514;13.440;2022-12-13T19:15:47;13.87;;;7.37;;